createdAt,value
2019-01-16T00:00:43.088Z,2.10
2019-01-16T00:03:22.165Z,2.00
2019-01-16T00:06:00.861Z,2.10
2019-01-16T00:08:46.652Z,2.10
2019-01-16T00:11:19.991Z,2.10
2019-01-16T00:13:58.783Z,2.10
2019-01-16T00:19:04.061Z,2.10
2019-01-16T00:21:37.186Z,2.10
2019-01-16T00:34:27.242Z,2.10
2019-01-16T00:37:06.112Z,2.10
2019-01-16T00:39:51.990Z,2.10
2019-01-16T00:42:37.106Z,2.10
2019-01-16T00:45:15.140Z,2.10
2019-01-16T00:47:47.878Z,2.10
2019-01-16T00:50:23.635Z,2.10
2019-01-16T00:53:11.767Z,2.10
2019-01-16T00:55:41.833Z,2.10
2019-01-16T00:58:14.591Z,2.10
2019-01-16T01:01:01.579Z,2.10
2019-01-16T01:03:31.765Z,2.10
2019-01-16T01:06:17.806Z,2.10
2019-01-16T01:08:56.665Z,2.00
2019-01-16T01:11:27.282Z,2.00
2019-01-16T01:14:00.173Z,2.00
2019-01-16T01:16:45.289Z,2.00
2019-01-16T01:19:24.116Z,2.00
2019-01-16T01:21:57.709Z,2.00
2019-01-16T01:24:36.808Z,2.00
2019-01-16T01:27:12.842Z,2.00
2019-01-16T01:29:48.654Z,2.00
2019-01-16T01:32:18.785Z,2.00
2019-01-16T01:34:55.087Z,2.00
2019-01-16T01:37:27.595Z,1.90
2019-01-16T01:40:12.807Z,1.90
2019-01-16T01:42:48.408Z,1.90
2019-01-16T01:48:11.710Z,1.80
2019-01-16T01:50:47.468Z,1.90
2019-01-16T01:53:26.873Z,1.80
2019-01-16T01:58:42.127Z,1.90
2019-01-16T02:01:14.905Z,1.90
2019-01-16T02:03:54.121Z,1.90
2019-01-16T02:06:27.151Z,1.80
2019-01-16T02:08:57.263Z,1.80
2019-01-16T02:11:29.931Z,1.80
2019-01-16T02:14:15.929Z,1.80
2019-01-16T02:16:48.947Z,1.80
2019-01-16T02:21:54.574Z,1.80
2019-01-16T02:24:40.409Z,1.80
2019-01-16T02:27:10.471Z,1.80
2019-01-16T02:29:56.390Z,1.90
2019-01-16T02:32:29.119Z,1.80
2019-01-16T02:35:01.901Z,1.90
2019-01-16T02:37:34.469Z,1.80
2019-01-16T02:40:13.754Z,1.80
2019-01-16T02:42:43.809Z,1.80
2019-01-16T02:45:29.898Z,1.80
2019-01-16T02:50:40.989Z,1.70
2019-01-16T03:01:26.658Z,1.70
2019-01-16T03:04:05.477Z,1.70
2019-01-16T03:06:44.386Z,1.70
2019-01-16T03:09:14.457Z,1.60
2019-01-16T03:11:47.486Z,1.60
2019-01-16T03:27:38.812Z,1.60
2019-01-16T03:30:23.258Z,1.50
2019-01-16T03:33:08.133Z,1.50
2019-01-16T03:35:43.982Z,1.60
2019-01-16T03:38:31.830Z,1.50
2019-01-16T03:43:40.617Z,1.50
2019-01-16T03:49:01.150Z,1.50
2019-01-16T03:56:46.411Z,1.50
2019-01-16T03:59:22.322Z,1.50
2019-01-16T04:02:08.776Z,1.50
2019-01-16T04:04:38.845Z,1.40
2019-01-16T04:07:24.898Z,1.40
2019-01-16T04:10:11.058Z,1.40
2019-01-16T04:12:43.837Z,1.40
2019-01-16T04:15:19.692Z,1.30
2019-01-16T04:17:59.056Z,1.30
2019-01-16T04:23:07.769Z,1.40
2019-01-16T04:25:53.949Z,1.30
2019-01-16T04:28:36.432Z,1.30
2019-01-16T04:31:09.506Z,1.30
2019-01-16T04:33:39.571Z,1.30
2019-01-16T04:36:15.313Z,1.30
2019-01-16T04:38:45.361Z,1.30
2019-01-16T04:41:15.457Z,1.20
2019-01-16T04:43:45.518Z,1.30
2019-01-16T04:46:31.836Z,1.30
2019-01-16T04:49:10.603Z,1.30
2019-01-16T04:51:55.708Z,1.30
2019-01-16T04:59:43.086Z,1.10
2019-01-16T05:02:13.154Z,1.10
2019-01-16T05:04:43.290Z,1.10
2019-01-16T05:09:55.063Z,1.00
2019-01-16T05:12:30.957Z,0.90
2019-01-16T05:15:13.181Z,0.90
2019-01-16T05:17:45.913Z,0.90
2019-01-16T05:20:21.578Z,0.90
2019-01-16T05:22:51.650Z,0.80
2019-01-16T05:25:21.730Z,0.80
2019-01-16T05:27:57.528Z,0.80
2019-01-16T05:30:30.285Z,0.80
2019-01-16T05:33:06.419Z,0.70
2019-01-16T05:35:54.356Z,0.70
2019-01-16T05:38:40.573Z,0.70
2019-01-16T05:41:10.631Z,0.60
2019-01-16T05:43:46.502Z,0.60
2019-01-16T05:46:19.114Z,0.60
2019-01-16T05:51:34.293Z,0.50
2019-01-16T05:54:19.448Z,0.50
2019-01-16T05:56:55.441Z,0.50
2019-01-16T05:59:25.512Z,0.40
2019-01-16T06:01:58.574Z,0.40
2019-01-16T06:04:40.497Z,0.30
2019-01-16T06:07:10.566Z,0.30
2019-01-16T06:09:52.497Z,0.30
2019-01-16T06:12:22.566Z,0.30
2019-01-16T06:17:31.088Z,0.30
2019-01-16T06:22:57.613Z,0.20
2019-01-16T06:30:33.528Z,0.20
2019-01-16T06:33:12.085Z,0.10
2019-01-16T06:35:42.154Z,0.10
2019-01-16T06:40:44.721Z,0.10
2019-01-16T06:43:17.566Z,0.00
2019-01-16T06:46:02.535Z,0.00
2019-01-16T06:48:48.835Z,0.00
2019-01-16T06:53:54.351Z,0.00
2019-01-16T06:56:42.482Z,0.10
2019-01-16T06:59:15.279Z,0.10
2019-01-16T07:01:57.337Z,0.10
2019-01-16T07:04:45.542Z,0.10
2019-01-16T07:07:31.993Z,0.10
2019-01-16T07:10:02.044Z,0.10
2019-01-16T07:12:37.792Z,0.00
2019-01-16T07:15:13.681Z,0.00
2019-01-16T07:17:49.485Z,0.00
2019-01-16T07:20:25.333Z,0.00
2019-01-16T07:22:55.402Z,0.00
2019-01-16T07:25:31.464Z,0.00
2019-01-16T07:33:26.244Z,0.00
2019-01-16T07:38:28.993Z,0.00
2019-01-16T07:41:02.006Z,-0.10
2019-01-16T07:43:34.988Z,0.00
2019-01-16T07:51:29.373Z,0.00
2019-01-16T07:56:43.590Z,0.00
2019-01-16T07:59:29.909Z,-0.10
2019-01-16T08:02:05.722Z,-0.10
2019-01-16T08:04:47.818Z,-0.10
2019-01-16T08:07:29.925Z,-0.10
2019-01-16T08:12:37.958Z,0.00
2019-01-16T08:15:16.425Z,0.00
2019-01-16T08:17:49.433Z,0.10
2019-01-16T08:20:24.934Z,0.10
2019-01-16T08:25:47.624Z,0.10
2019-01-16T08:31:04.875Z,0.20
2019-01-16T08:33:49.946Z,0.20
2019-01-16T08:36:22.703Z,0.30
2019-01-16T08:38:52.770Z,0.30
2019-01-16T08:41:26.045Z,0.30
2019-01-16T08:43:56.130Z,0.40
2019-01-16T08:46:43.881Z,0.40
2019-01-16T08:49:30.060Z,0.40
2019-01-16T08:52:09.007Z,0.40
2019-01-16T08:57:32.982Z,0.50
2019-01-16T09:00:06.171Z,0.50
2019-01-16T09:02:48.571Z,0.40
2019-01-16T09:05:34.948Z,0.40
2019-01-16T09:08:07.818Z,0.40
2019-01-16T09:10:40.982Z,0.50
2019-01-16T09:13:11.118Z,0.50
2019-01-16T09:15:47.165Z,0.50
2019-01-16T09:18:17.256Z,0.60
2019-01-16T09:20:59.178Z,0.60
2019-01-16T09:28:46.181Z,0.70
2019-01-16T09:31:30.749Z,0.70
2019-01-16T09:34:00.811Z,0.80
2019-01-16T09:36:31.110Z,0.80
2019-01-16T09:39:03.854Z,0.80
2019-01-16T09:44:34.865Z,0.90
2019-01-16T09:49:34.670Z,1.00
2019-01-16T09:55:05.681Z,1.10
2019-01-16T09:57:35.758Z,1.20
2019-01-16T10:02:53.277Z,1.30
2019-01-16T10:05:23.361Z,1.40
2019-01-16T10:07:53.417Z,1.40
2019-01-16T10:10:26.438Z,1.50
2019-01-16T10:13:11.537Z,1.60
2019-01-16T10:15:56.262Z,1.70
2019-01-16T10:18:32.011Z,1.80
2019-01-16T10:21:02.096Z,1.90
2019-01-16T10:28:53.407Z,2.10
2019-01-16T10:31:23.469Z,2.20
2019-01-16T10:33:56.274Z,2.30
2019-01-16T10:36:41.206Z,2.40
2019-01-16T10:39:13.930Z,2.50
2019-01-16T10:41:59.132Z,2.50
2019-01-16T10:44:38.448Z,2.60
2019-01-16T10:47:11.187Z,2.70
2019-01-16T10:49:41.246Z,2.90
2019-01-16T10:54:46.485Z,3.00
2019-01-16T10:57:19.755Z,3.10
2019-01-16T10:59:52.652Z,3.10
2019-01-16T11:02:28.197Z,3.10
2019-01-16T11:05:14.246Z,3.10
2019-01-16T11:07:49.978Z,3.10
2019-01-16T11:10:38.219Z,3.10
2019-01-16T11:13:24.337Z,3.10
2019-01-16T11:31:39.794Z,3.30
2019-01-16T11:34:12.848Z,3.30
2019-01-16T11:36:42.913Z,3.30
2019-01-16T11:39:30.810Z,3.40
2019-01-16T11:42:03.774Z,3.50
2019-01-16T11:44:49.073Z,3.60
2019-01-16T11:47:36.683Z,3.60
2019-01-16T11:53:07.211Z,3.70
2019-01-16T11:58:10.057Z,3.80
2019-01-16T12:00:56.488Z,3.80
2019-01-16T12:03:44.178Z,3.80
2019-01-16T12:06:23.341Z,3.80
2019-01-16T12:08:53.477Z,3.80
2019-01-16T12:11:32.737Z,3.90
2019-01-16T12:14:05.799Z,4.00
2019-01-16T12:16:35.868Z,4.00
2019-01-16T12:19:06.092Z,4.10
2019-01-16T12:21:52.205Z,4.10
2019-01-16T12:24:40.361Z,4.10
2019-01-16T12:27:13.138Z,4.10
2019-01-16T12:29:45.842Z,4.10
2019-01-16T12:32:24.803Z,4.10
2019-01-16T12:35:09.940Z,4.10
2019-01-16T12:37:40.091Z,4.00
2019-01-16T12:40:10.877Z,4.00
2019-01-16T12:42:57.097Z,4.10
2019-01-16T12:45:27.221Z,4.10
2019-01-16T12:50:44.562Z,4.20
2019-01-16T12:53:17.291Z,4.20
2019-01-16T12:58:34.772Z,4.20
2019-01-16T13:01:07.393Z,4.20
2019-01-16T13:03:40.149Z,4.20
2019-01-16T13:09:00.862Z,4.10
2019-01-16T13:11:30.921Z,4.20
2019-01-16T13:14:06.668Z,4.10
2019-01-16T13:22:06.265Z,4.10
2019-01-16T13:24:45.179Z,4.10
2019-01-16T13:32:26.544Z,4.10
2019-01-16T13:35:14.930Z,4.00
2019-01-16T13:38:03.125Z,4.00
2019-01-16T13:43:02.961Z,4.00
2019-01-16T13:45:44.817Z,4.00
2019-01-16T13:54:01.193Z,4.00
2019-01-16T13:59:28.962Z,3.90
2019-01-16T14:01:59.018Z,3.90
2019-01-16T14:04:45.089Z,3.90
2019-01-16T14:07:23.997Z,3.90
2019-01-16T14:10:03.165Z,3.90
2019-01-16T14:12:33.237Z,3.90
2019-01-16T14:15:05.961Z,3.90
2019-01-16T14:17:52.248Z,3.90
2019-01-16T14:20:30.989Z,3.80
2019-01-16T14:28:40.278Z,3.80
2019-01-16T14:31:10.334Z,3.70
2019-01-16T14:33:46.104Z,3.70
2019-01-16T14:36:32.314Z,3.70
2019-01-16T14:39:18.313Z,3.70
2019-01-16T14:41:56.781Z,3.60
2019-01-16T14:47:05.850Z,3.60
2019-01-16T14:49:44.628Z,3.60
2019-01-16T14:54:59.238Z,3.50
2019-01-16T15:00:15.020Z,3.50
2019-01-16T15:02:47.793Z,3.40
2019-01-16T15:05:26.689Z,3.40
2019-01-16T15:08:08.601Z,3.40
2019-01-16T15:10:50.449Z,3.40
2019-01-16T15:13:20.504Z,3.30
2019-01-16T15:18:29.139Z,3.30
2019-01-16T15:21:08.038Z,3.20
2019-01-16T15:23:43.843Z,3.20
2019-01-16T15:26:13.926Z,3.10
2019-01-16T15:28:43.989Z,3.10
2019-01-16T15:31:28.830Z,3.00
2019-01-16T15:34:04.981Z,3.00
2019-01-16T15:36:35.055Z,2.90
2019-01-16T15:39:06.645Z,2.90
2019-01-16T15:41:37.206Z,2.80
2019-01-16T15:44:07.381Z,2.80
2019-01-16T15:46:43.493Z,2.80
2019-01-16T15:51:46.897Z,2.70
2019-01-16T15:59:56.745Z,2.60
2019-01-16T16:02:35.855Z,2.60
2019-01-16T16:07:39.623Z,2.60
2019-01-16T16:10:28.077Z,2.60
2019-01-16T16:13:10.632Z,2.60
2019-01-16T16:18:31.701Z,2.60
2019-01-16T16:21:07.773Z,2.60
2019-01-16T16:23:53.136Z,2.60
2019-01-16T16:31:23.243Z,2.60
2019-01-16T16:33:56.874Z,2.60
2019-01-16T16:39:03.148Z,2.60
2019-01-16T16:44:12.682Z,2.60
2019-01-16T16:49:30.374Z,2.60
2019-01-16T16:52:12.471Z,2.70
2019-01-16T16:54:54.261Z,2.70
2019-01-16T16:57:30.377Z,2.70
2019-01-16T17:02:42.558Z,3.00
2019-01-16T17:05:13.225Z,3.00
2019-01-16T17:07:52.138Z,3.10
2019-01-16T17:10:31.272Z,3.10
2019-01-16T17:15:37.210Z,3.20
2019-01-16T17:18:07.846Z,3.10
2019-01-16T17:20:46.913Z,3.10
2019-01-16T17:25:59.009Z,2.90
2019-01-16T17:28:31.894Z,2.80
2019-01-16T17:31:04.914Z,2.70
2019-01-16T17:33:46.793Z,2.70
2019-01-16T17:38:58.669Z,2.60
2019-01-16T17:41:28.800Z,2.60
2019-01-16T17:44:04.597Z,2.50
2019-01-16T17:49:21.828Z,2.50
2019-01-16T17:52:03.983Z,2.50
2019-01-16T17:54:36.715Z,2.50
2019-01-16T17:57:09.357Z,2.40
2019-01-16T17:59:55.440Z,2.30
2019-01-16T18:08:02.372Z,2.40
2019-01-16T18:10:35.117Z,2.40
2019-01-16T18:13:05.274Z,2.40
2019-01-16T18:15:48.385Z,2.60
2019-01-16T18:18:24.745Z,2.60
2019-01-16T18:23:39.014Z,2.80
2019-01-16T18:26:17.827Z,2.80
2019-01-16T18:31:38.381Z,2.80
2019-01-16T18:34:23.290Z,2.70
2019-01-16T18:36:56.154Z,2.70
2019-01-16T18:47:18.927Z,2.50
2019-01-16T18:52:30.128Z,2.40
2019-01-16T18:55:00.240Z,2.50
2019-01-16T18:57:30.302Z,2.50
2019-01-16T19:02:41.985Z,2.40
2019-01-16T19:05:24.181Z,2.40
2019-01-16T19:07:59.893Z,2.40
2019-01-16T19:13:19.278Z,2.40
2019-01-16T19:18:24.753Z,2.40
2019-01-16T19:23:43.481Z,2.40
2019-01-16T19:34:28.805Z,2.40
2019-01-16T19:37:04.734Z,2.40
2019-01-16T19:39:37.835Z,2.40
2019-01-16T19:44:52.389Z,2.50
2019-01-16T19:47:38.797Z,2.50
2019-01-16T19:52:46.139Z,2.40
2019-01-16T19:55:25.077Z,2.40
2019-01-16T20:00:36.523Z,2.40
2019-01-16T20:08:24.242Z,2.20
2019-01-16T20:16:14.498Z,2.00
2019-01-16T20:18:47.276Z,2.00
2019-01-16T20:21:23.108Z,2.00
2019-01-16T20:26:37.593Z,1.90
2019-01-16T20:31:49.468Z,2.00
2019-01-16T20:34:27.972Z,1.90
2019-01-16T20:37:10.116Z,1.80
2019-01-16T20:39:46.202Z,1.80
2019-01-16T20:42:16.327Z,1.80
2019-01-16T20:44:49.183Z,1.80
2019-01-16T20:47:28.250Z,1.80
2019-01-16T20:50:01.012Z,1.80
2019-01-16T20:55:13.417Z,1.70
2019-01-16T21:00:41.509Z,1.60
2019-01-16T21:03:14.551Z,1.60
2019-01-16T21:05:47.650Z,1.60
2019-01-16T21:08:34.052Z,1.60
2019-01-16T21:13:39.450Z,1.50
2019-01-16T21:16:12.234Z,1.50
2019-01-16T21:18:42.333Z,1.50
2019-01-16T21:21:18.416Z,1.50
2019-01-16T21:23:54.473Z,1.50
2019-01-16T21:26:24.537Z,1.40
2019-01-16T21:28:54.609Z,1.50
2019-01-16T21:31:27.326Z,1.50
2019-01-16T21:41:38.299Z,1.30
2019-01-16T21:44:13.812Z,1.30
2019-01-16T21:57:14.139Z,1.50
2019-01-16T21:59:44.202Z,1.50
2019-01-16T22:02:30.028Z,1.50
2019-01-16T22:07:35.593Z,1.60
2019-01-16T22:10:25.241Z,1.60
2019-01-16T22:13:01.210Z,1.70
2019-01-16T22:15:34.294Z,1.70
2019-01-16T22:20:53.117Z,1.70
2019-01-16T22:25:52.919Z,1.60
2019-01-16T22:28:34.997Z,1.70
2019-01-16T22:33:35.032Z,1.70
2019-01-16T22:41:44.461Z,1.50
2019-01-16T22:46:44.255Z,1.40
2019-01-16T22:49:14.330Z,1.40
2019-01-16T22:51:49.959Z,1.30
2019-01-16T22:54:20.051Z,1.30
2019-01-16T22:56:53.113Z,1.20
2019-01-16T22:59:25.981Z,1.20
2019-01-16T23:01:58.540Z,1.20
2019-01-16T23:04:40.430Z,1.10
2019-01-16T23:07:26.433Z,1.10
2019-01-16T23:09:56.573Z,1.00
2019-01-16T23:12:26.679Z,0.80
2019-01-16T23:20:24.430Z,0.70
2019-01-16T23:23:03.329Z,0.60
2019-01-16T23:28:18.453Z,0.80
2019-01-16T23:30:48.528Z,0.90
2019-01-16T23:33:18.594Z,1.00
2019-01-16T23:38:49.153Z,1.20
2019-01-16T23:41:27.893Z,1.30
2019-01-16T23:49:21.301Z,1.40
2019-01-16T23:51:57.037Z,1.50
2019-01-16T23:57:11.428Z,1.40
2019-01-16T23:59:59.806Z,1.60
